sensor_id;sensor_type;location;lat;lon;timestamp;temperature;humidity
54846;DHT22;53889;50.084;8.646;2022-11-24T00:01:04;7.10;99.90
54846;DHT22;53889;50.084;8.646;2022-11-24T00:03:31;7.10;99.90
54846;DHT22;53889;50.084;8.646;2022-11-24T00:06:02;7.10;99.90
54846;DHT22;53889;50.084;8.646;2022-11-24T00:08:29;7.00;99.90
54846;DHT22;53889;50.084;8.646;2022-11-24T00:11:01;7.00;99.90
54846;DHT22;53889;50.084;8.646;2022-11-24T00:13:28;7.00;99.90
54846;DHT22;53889;50.084;8.646;2022-11-24T00:16:03;7.00;99.90
54846;DHT22;53889;50.084;8.646;2022-11-24T00:18:30;7.10;99.90
54846;DHT22;53889;50.084;8.646;2022-11-24T00:20:56;7.10;99.90
54846;DHT22;53889;50.084;8.646;2022-11-24T00:23:23;7.20;99.90
54846;DHT22;53889;50.084;8.646;2022-11-24T00:25:51;7.20;99.90
54846;DHT22;53889;50.084;8.646;2022-11-24T00:28:17;7.20;99.90
54846;DHT22;53889;50.084;8.646;2022-11-24T00:30:44;7.30;99.90
54846;DHT22;53889;50.084;8.646;2022-11-24T00:33:12;7.30;99.90
54846;DHT22;53889;50.084;8.646;2022-11-24T00:35:39;7.30;99.90
54846;DHT22;53889;50.084;8.646;2022-11-24T00:38:06;7.30;99.90
54846;DHT22;53889;50.084;8.646;2022-11-24T00:40:32;7.30;99.90
54846;DHT22;53889;50.084;8.646;2022-11-24T00:42:59;7.30;99.90
54846;DHT22;53889;50.084;8.646;2022-11-24T00:45:26;7.10;99.90
54846;DHT22;53889;50.084;8.646;2022-11-24T00:47:52;7.20;99.90
54846;DHT22;53889;50.084;8.646;2022-11-24T00:50:20;7.10;99.90
54846;DHT22;53889;50.084;8.646;2022-11-24T00:52:47;7.20;99.90
54846;DHT22;53889;50.084;8.646;2022-11-24T00:55:14;7.20;99.90
54846;DHT22;53889;50.084;8.646;2022-11-24T00:57:40;7.10;99.90
54846;DHT22;53889;50.084;8.646;2022-11-24T01:00:08;7.00;99.90
54846;DHT22;53889;50.084;8.646;2022-11-24T01:02:34;7.10;99.90
54846;DHT22;53889;50.084;8.646;2022-11-24T01:05:01;7.00;99.90
54846;DHT22;53889;50.084;8.646;2022-11-24T01:07:30;7.10;99.90
54846;DHT22;53889;50.084;8.646;2022-11-24T01:09:56;7.80;99.90
54846;DHT22;53889;50.084;8.646;2022-11-24T01:12:23;6.90;99.90
54846;DHT22;53889;50.084;8.646;2022-11-24T01:14:50;6.90;99.90
54846;DHT22;53889;50.084;8.646;2022-11-24T01:17:16;7.00;99.90
54846;DHT22;53889;50.084;8.646;2022-11-24T01:19:43;7.00;99.90
54846;DHT22;53889;50.084;8.646;2022-11-24T01:22:11;7.10;99.90
54846;DHT22;53889;50.084;8.646;2022-11-24T01:24:39;7.10;99.90
54846;DHT22;53889;50.084;8.646;2022-11-24T01:27:06;7.10;99.90
54846;DHT22;53889;50.084;8.646;2022-11-24T01:29:33;7.20;99.90
54846;DHT22;53889;50.084;8.646;2022-11-24T01:32:00;7.20;99.90
54846;DHT22;53889;50.084;8.646;2022-11-24T01:34:27;7.20;99.90
54846;DHT22;53889;50.084;8.646;2022-11-24T01:36:54;7.20;99.90
54846;DHT22;53889;50.084;8.646;2022-11-24T01:39:20;7.20;99.90
54846;DHT22;53889;50.084;8.646;2022-11-24T01:41:48;7.20;99.90
54846;DHT22;53889;50.084;8.646;2022-11-24T01:44:22;7.10;99.90
54846;DHT22;53889;50.084;8.646;2022-11-24T01:46:53;7.00;99.90
54846;DHT22;53889;50.084;8.646;2022-11-24T01:49:22;7.10;99.90
54846;DHT22;53889;50.084;8.646;2022-11-24T01:51:55;7.50;99.90
54846;DHT22;53889;50.084;8.646;2022-11-24T01:54:28;7.10;99.90
54846;DHT22;53889;50.084;8.646;2022-11-24T01:57:03;7.10;99.90
54846;DHT22;53889;50.084;8.646;2022-11-24T01:59:32;7.10;99.90
54846;DHT22;53889;50.084;8.646;2022-11-24T02:01:59;7.10;99.90
54846;DHT22;53889;50.084;8.646;2022-11-24T02:04:29;7.10;99.90
54846;DHT22;53889;50.084;8.646;2022-11-24T02:06:58;7.20;99.90
54846;DHT22;53889;50.084;8.646;2022-11-24T02:09:30;7.10;99.90
54846;DHT22;53889;50.084;8.646;2022-11-24T02:12:00;7.10;99.90
54846;DHT22;53889;50.084;8.646;2022-11-24T02:14:27;7.10;99.90
54846;DHT22;53889;50.084;8.646;2022-11-24T02:16:54;7.20;99.90
54846;DHT22;53889;50.084;8.646;2022-11-24T02:19:27;7.20;99.90
54846;DHT22;53889;50.084;8.646;2022-11-24T02:21:55;7.30;99.90
54846;DHT22;53889;50.084;8.646;2022-11-24T02:24:25;7.70;99.90
54846;DHT22;53889;50.084;8.646;2022-11-24T02:26:55;7.20;99.90
54846;DHT22;53889;50.084;8.646;2022-11-24T02:29:22;7.20;99.90
54846;DHT22;53889;50.084;8.646;2022-11-24T02:31:51;7.30;99.90
54846;DHT22;53889;50.084;8.646;2022-11-24T02:34:20;7.30;99.90
54846;DHT22;53889;50.084;8.646;2022-11-24T02:36:47;7.40;99.90
54846;DHT22;53889;50.084;8.646;2022-11-24T02:39:14;7.30;99.90
54846;DHT22;53889;50.084;8.646;2022-11-24T02:41:43;7.30;99.90
54846;DHT22;53889;50.084;8.646;2022-11-24T02:44:14;7.30;99.90
54846;DHT22;53889;50.084;8.646;2022-11-24T02:46:43;7.30;99.90
54846;DHT22;53889;50.084;8.646;2022-11-24T02:49:09;7.30;99.90
54846;DHT22;53889;50.084;8.646;2022-11-24T02:51:36;7.40;99.90
54846;DHT22;53889;50.084;8.646;2022-11-24T02:54:03;7.40;99.90
54846;DHT22;53889;50.084;8.646;2022-11-24T02:56:29;7.40;99.90
54846;DHT22;53889;50.084;8.646;2022-11-24T02:58:56;7.50;99.90
54846;DHT22;53889;50.084;8.646;2022-11-24T03:01:24;7.50;99.90
54846;DHT22;53889;50.084;8.646;2022-11-24T03:03:51;7.50;99.90
54846;DHT22;53889;50.084;8.646;2022-11-24T03:06:18;7.40;99.90
54846;DHT22;53889;50.084;8.646;2022-11-24T03:08:44;7.50;99.90
54846;DHT22;53889;50.084;8.646;2022-11-24T03:11:11;7.40;99.90
54846;DHT22;53889;50.084;8.646;2022-11-24T03:13:38;7.30;99.90
54846;DHT22;53889;50.084;8.646;2022-11-24T03:16:07;7.20;99.90
54846;DHT22;53889;50.084;8.646;2022-11-24T03:18:35;7.20;99.90
54846;DHT22;53889;50.084;8.646;2022-11-24T03:21:02;7.20;99.90
54846;DHT22;53889;50.084;8.646;2022-11-24T03:23:29;7.10;99.90
54846;DHT22;53889;50.084;8.646;2022-11-24T03:26:06;7.00;99.90
54846;DHT22;53889;50.084;8.646;2022-11-24T03:28:33;7.00;99.90
54846;DHT22;53889;50.084;8.646;2022-11-24T03:31:00;7.00;99.90
54846;DHT22;53889;50.084;8.646;2022-11-24T03:33:27;6.90;99.90
54846;DHT22;53889;50.084;8.646;2022-11-24T03:35:55;6.90;99.90
54846;DHT22;53889;50.084;8.646;2022-11-24T03:38:22;6.90;99.90
54846;DHT22;53889;50.084;8.646;2022-11-24T03:40:49;6.90;99.90
54846;DHT22;53889;50.084;8.646;2022-11-24T03:43:16;6.90;99.90
54846;DHT22;53889;50.084;8.646;2022-11-24T03:45:44;6.90;99.90
54846;DHT22;53889;50.084;8.646;2022-11-24T03:48:11;6.90;99.90
54846;DHT22;53889;50.084;8.646;2022-11-24T03:50:37;6.90;99.90
54846;DHT22;53889;50.084;8.646;2022-11-24T03:53:05;6.90;99.90
54846;DHT22;53889;50.084;8.646;2022-11-24T03:55:32;6.90;99.90
54846;DHT22;53889;50.084;8.646;2022-11-24T03:57:59;7.30;99.90
54846;DHT22;53889;50.084;8.646;2022-11-24T04:00:27;6.80;99.90
54846;DHT22;53889;50.084;8.646;2022-11-24T04:02:53;6.90;99.90
54846;DHT22;53889;50.084;8.646;2022-11-24T04:05:20;6.80;99.90
54846;DHT22;53889;50.084;8.646;2022-11-24T04:07:47;6.80;99.90
54846;DHT22;53889;50.084;8.646;2022-11-24T04:10:15;6.90;99.90
54846;DHT22;53889;50.084;8.646;2022-11-24T04:12:42;6.90;99.90
54846;DHT22;53889;50.084;8.646;2022-11-24T04:15:11;6.90;99.90
54846;DHT22;53889;50.084;8.646;2022-11-24T04:17:39;7.00;99.90
54846;DHT22;53889;50.084;8.646;2022-11-24T04:20:07;7.00;99.90
54846;DHT22;53889;50.084;8.646;2022-11-24T04:22:34;7.10;99.90
54846;DHT22;53889;50.084;8.646;2022-11-24T04:25:00;7.10;99.90
54846;DHT22;53889;50.084;8.646;2022-11-24T04:27:29;7.10;99.90
54846;DHT22;53889;50.084;8.646;2022-11-24T04:29:55;7.10;99.90
54846;DHT22;53889;50.084;8.646;2022-11-24T04:32:22;7.20;99.90
54846;DHT22;53889;50.084;8.646;2022-11-24T04:34:49;7.20;99.90
54846;DHT22;53889;50.084;8.646;2022-11-24T04:37:15;7.20;99.90
54846;DHT22;53889;50.084;8.646;2022-11-24T04:39:42;7.30;99.90
54846;DHT22;53889;50.084;8.646;2022-11-24T04:42:11;7.30;99.90
54846;DHT22;53889;50.084;8.646;2022-11-24T04:44:40;7.30;99.90
54846;DHT22;53889;50.084;8.646;2022-11-24T04:47:06;7.40;99.90
54846;DHT22;53889;50.084;8.646;2022-11-24T04:49:33;7.40;99.90
54846;DHT22;53889;50.084;8.646;2022-11-24T04:52:00;7.40;99.90
54846;DHT22;53889;50.084;8.646;2022-11-24T04:54:26;7.40;99.90
54846;DHT22;53889;50.084;8.646;2022-11-24T04:56:53;7.50;99.90
54846;DHT22;53889;50.084;8.646;2022-11-24T04:59:20;7.50;99.90
54846;DHT22;53889;50.084;8.646;2022-11-24T05:01:48;7.50;99.90
54846;DHT22;53889;50.084;8.646;2022-11-24T05:04:15;7.60;99.90
54846;DHT22;53889;50.084;8.646;2022-11-24T05:06:43;7.60;99.90
54846;DHT22;53889;50.084;8.646;2022-11-24T05:09:13;7.70;99.90
54846;DHT22;53889;50.084;8.646;2022-11-24T05:11:40;7.80;99.90
54846;DHT22;53889;50.084;8.646;2022-11-24T05:14:07;7.80;99.90
54846;DHT22;53889;50.084;8.646;2022-11-24T05:16:34;7.80;99.90
54846;DHT22;53889;50.084;8.646;2022-11-24T05:19:03;7.90;99.90
54846;DHT22;53889;50.084;8.646;2022-11-24T05:21:30;7.90;99.90
54846;DHT22;53889;50.084;8.646;2022-11-24T05:23:57;7.90;99.90
54846;DHT22;53889;50.084;8.646;2022-11-24T05:26:23;7.90;99.90
54846;DHT22;53889;50.084;8.646;2022-11-24T05:28:51;8.00;99.90
54846;DHT22;53889;50.084;8.646;2022-11-24T05:31:18;7.90;99.90
54846;DHT22;53889;50.084;8.646;2022-11-24T05:33:45;8.00;99.90
54846;DHT22;53889;50.084;8.646;2022-11-24T05:36:13;8.00;99.90
54846;DHT22;53889;50.084;8.646;2022-11-24T05:38:54;8.10;99.90
54846;DHT22;53889;50.084;8.646;2022-11-24T05:41:20;8.10;99.90
54846;DHT22;53889;50.084;8.646;2022-11-24T05:43:47;8.20;99.90
54846;DHT22;53889;50.084;8.646;2022-11-24T05:46:14;8.20;99.90
54846;DHT22;53889;50.084;8.646;2022-11-24T05:48:41;8.20;99.90
54846;DHT22;53889;50.084;8.646;2022-11-24T05:51:07;8.30;99.90
54846;DHT22;53889;50.084;8.646;2022-11-24T05:53:35;8.30;99.90
54846;DHT22;53889;50.084;8.646;2022-11-24T05:56:02;8.40;99.90
54846;DHT22;53889;50.084;8.646;2022-11-24T05:58:29;8.40;99.90
54846;DHT22;53889;50.084;8.646;2022-11-24T06:00:56;8.30;99.90
54846;DHT22;53889;50.084;8.646;2022-11-24T06:03:23;8.60;99.90
54846;DHT22;53889;50.084;8.646;2022-11-24T06:05:49;8.40;99.90
54846;DHT22;53889;50.084;8.646;2022-11-24T06:08:16;8.40;99.90
54846;DHT22;53889;50.084;8.646;2022-11-24T06:10:44;8.40;99.90
54846;DHT22;53889;50.084;8.646;2022-11-24T06:13:11;8.40;99.90
54846;DHT22;53889;50.084;8.646;2022-11-24T06:15:38;8.40;99.90
54846;DHT22;53889;50.084;8.646;2022-11-24T06:18:05;8.70;99.90
54846;DHT22;53889;50.084;8.646;2022-11-24T06:20:32;8.40;99.90
54846;DHT22;53889;50.084;8.646;2022-11-24T06:22:59;8.50;99.90
54846;DHT22;53889;50.084;8.646;2022-11-24T06:25:26;8.50;99.90
54846;DHT22;53889;50.084;8.646;2022-11-24T06:27:55;8.50;99.90
54846;DHT22;53889;50.084;8.646;2022-11-24T06:30:21;8.50;99.90
54846;DHT22;53889;50.084;8.646;2022-11-24T06:32:51;8.50;99.90
54846;DHT22;53889;50.084;8.646;2022-11-24T06:35:19;8.40;99.90
54846;DHT22;53889;50.084;8.646;2022-11-24T06:37:46;8.50;99.90
54846;DHT22;53889;50.084;8.646;2022-11-24T06:40:12;8.50;99.90
54846;DHT22;53889;50.084;8.646;2022-11-24T06:42:39;8.50;99.90
54846;DHT22;53889;50.084;8.646;2022-11-24T06:45:08;8.50;99.90
54846;DHT22;53889;50.084;8.646;2022-11-24T06:47:35;8.50;99.90
54846;DHT22;53889;50.084;8.646;2022-11-24T06:50:02;8.60;99.90
54846;DHT22;53889;50.084;8.646;2022-11-24T06:52:29;8.50;99.90
54846;DHT22;53889;50.084;8.646;2022-11-24T06:54:56;8.60;99.90
54846;DHT22;53889;50.084;8.646;2022-11-24T06:57:22;8.60;99.90
54846;DHT22;53889;50.084;8.646;2022-11-24T06:59:49;8.60;99.90
54846;DHT22;53889;50.084;8.646;2022-11-24T07:02:17;8.60;99.90
54846;DHT22;53889;50.084;8.646;2022-11-24T07:04:44;8.60;99.90
54846;DHT22;53889;50.084;8.646;2022-11-24T07:07:11;8.60;99.90
54846;DHT22;53889;50.084;8.646;2022-11-24T07:09:38;8.60;99.90
54846;DHT22;53889;50.084;8.646;2022-11-24T07:12:05;8.60;99.90
54846;DHT22;53889;50.084;8.646;2022-11-24T07:14:32;8.50;99.90
54846;DHT22;53889;50.084;8.646;2022-11-24T07:16:58;8.50;99.90
54846;DHT22;53889;50.084;8.646;2022-11-24T07:19:28;8.50;99.90
54846;DHT22;53889;50.084;8.646;2022-11-24T07:21:55;8.50;99.90
54846;DHT22;53889;50.084;8.646;2022-11-24T07:24:22;8.50;99.90
54846;DHT22;53889;50.084;8.646;2022-11-24T07:26:48;8.40;99.90
54846;DHT22;53889;50.084;8.646;2022-11-24T07:29:15;8.40;99.90
54846;DHT22;53889;50.084;8.646;2022-11-24T07:31:42;8.50;99.90
54846;DHT22;53889;50.084;8.646;2022-11-24T07:34:10;8.50;99.90
54846;DHT22;53889;50.084;8.646;2022-11-24T07:36:40;8.50;99.90
54846;DHT22;53889;50.084;8.646;2022-11-24T07:39:07;8.50;99.90
54846;DHT22;53889;50.084;8.646;2022-11-24T07:41:33;8.50;99.90
54846;DHT22;53889;50.084;8.646;2022-11-24T07:44:00;8.50;99.90
54846;DHT22;53889;50.084;8.646;2022-11-24T07:46:27;8.50;99.90
54846;DHT22;53889;50.084;8.646;2022-11-24T07:48:54;8.70;99.90
54846;DHT22;53889;50.084;8.646;2022-11-24T07:51:20;8.60;99.90
54846;DHT22;53889;50.084;8.646;2022-11-24T07:53:48;8.60;99.90
54846;DHT22;53889;50.084;8.646;2022-11-24T07:56:15;8.50;99.90
54846;DHT22;53889;50.084;8.646;2022-11-24T07:58:42;8.60;99.90
54846;DHT22;53889;50.084;8.646;2022-11-24T08:01:10;8.60;99.90
54846;DHT22;53889;50.084;8.646;2022-11-24T08:03:37;8.60;99.90
54846;DHT22;53889;50.084;8.646;2022-11-24T08:06:04;8.60;99.90
54846;DHT22;53889;50.084;8.646;2022-11-24T08:08:31;8.70;99.90
54846;DHT22;53889;50.084;8.646;2022-11-24T08:11:05;8.70;99.90
54846;DHT22;53889;50.084;8.646;2022-11-24T08:13:33;8.70;99.90
54846;DHT22;53889;50.084;8.646;2022-11-24T08:16:03;9.10;99.90
54846;DHT22;53889;50.084;8.646;2022-11-24T08:18:30;8.70;99.90
54846;DHT22;53889;50.084;8.646;2022-11-24T08:20:57;8.80;99.90
54846;DHT22;53889;50.084;8.646;2022-11-24T08:23:24;8.80;99.90
54846;DHT22;53889;50.084;8.646;2022-11-24T08:25:51;8.80;99.90
54846;DHT22;53889;50.084;8.646;2022-11-24T08:28:20;8.80;99.90
54846;DHT22;53889;50.084;8.646;2022-11-24T08:30:47;8.70;99.90
54846;DHT22;53889;50.084;8.646;2022-11-24T08:33:14;8.70;99.90
54846;DHT22;53889;50.084;8.646;2022-11-24T08:35:41;8.70;99.90
54846;DHT22;53889;50.084;8.646;2022-11-24T08:38:07;8.70;99.90
54846;DHT22;53889;50.084;8.646;2022-11-24T08:40:34;8.70;99.90
54846;DHT22;53889;50.084;8.646;2022-11-24T08:43:01;8.80;99.90
54846;DHT22;53889;50.084;8.646;2022-11-24T08:45:29;8.80;99.90
54846;DHT22;53889;50.084;8.646;2022-11-24T08:47:56;8.80;99.90
54846;DHT22;53889;50.084;8.646;2022-11-24T08:50:24;8.90;99.90
54846;DHT22;53889;50.084;8.646;2022-11-24T08:52:51;9.00;99.90
54846;DHT22;53889;50.084;8.646;2022-11-24T08:55:18;9.00;99.90
54846;DHT22;53889;50.084;8.646;2022-11-24T08:57:45;9.10;99.90
54846;DHT22;53889;50.084;8.646;2022-11-24T09:00:13;9.30;99.90
54846;DHT22;53889;50.084;8.646;2022-11-24T09:02:53;9.30;99.90
54846;DHT22;53889;50.084;8.646;2022-11-24T09:05:20;9.40;99.90
54846;DHT22;53889;50.084;8.646;2022-11-24T09:07:47;9.50;99.90
54846;DHT22;53889;50.084;8.646;2022-11-24T09:10:13;9.60;99.90
54846;DHT22;53889;50.084;8.646;2022-11-24T09:12:43;9.60;99.90
54846;DHT22;53889;50.084;8.646;2022-11-24T09:15:09;9.70;99.90
54846;DHT22;53889;50.084;8.646;2022-11-24T09:17:36;9.70;99.90
54846;DHT22;53889;50.084;8.646;2022-11-24T09:20:05;9.30;99.90
54846;DHT22;53889;50.084;8.646;2022-11-24T09:22:32;9.90;99.90
54846;DHT22;53889;50.084;8.646;2022-11-24T09:24:59;10.00;99.90
54846;DHT22;53889;50.084;8.646;2022-11-24T09:27:26;10.10;99.90
54846;DHT22;53889;50.084;8.646;2022-11-24T09:29:53;10.10;99.90
54846;DHT22;53889;50.084;8.646;2022-11-24T09:32:20;10.10;99.90
54846;DHT22;53889;50.084;8.646;2022-11-24T09:34:49;9.80;99.90
54846;DHT22;53889;50.084;8.646;2022-11-24T09:37:17;9.80;99.90
54846;DHT22;53889;50.084;8.646;2022-11-24T09:39:44;9.80;99.90
54846;DHT22;53889;50.084;8.646;2022-11-24T09:42:16;9.80;99.90
54846;DHT22;53889;50.084;8.646;2022-11-24T09:45:10;9.80;99.90
54846;DHT22;53889;50.084;8.646;2022-11-24T09:47:49;10.00;99.90
54846;DHT22;53889;50.084;8.646;2022-11-24T09:50:20;10.50;99.90
54846;DHT22;53889;50.084;8.646;2022-11-24T09:52:52;10.70;99.90
54846;DHT22;53889;50.084;8.646;2022-11-24T09:55:32;10.70;99.90
54846;DHT22;53889;50.084;8.646;2022-11-24T09:58:23;10.50;99.90
54846;DHT22;53889;50.084;8.646;2022-11-24T10:00:56;10.40;99.90
54846;DHT22;53889;50.084;8.646;2022-11-24T10:03:26;10.30;99.90
54846;DHT22;53889;50.084;8.646;2022-11-24T10:05:54;10.20;99.90
54846;DHT22;53889;50.084;8.646;2022-11-24T10:08:30;10.10;99.90
54846;DHT22;53889;50.084;8.646;2022-11-24T10:11:02;10.10;99.90
54846;DHT22;53889;50.084;8.646;2022-11-24T10:13:56;10.20;99.90
54846;DHT22;53889;50.084;8.646;2022-11-24T10:16:37;11.40;99.90
54846;DHT22;53889;50.084;8.646;2022-11-24T10:19:16;13.00;99.90
54846;DHT22;53889;50.084;8.646;2022-11-24T10:21:57;13.70;99.90
54846;DHT22;53889;50.084;8.646;2022-11-24T10:24:47;13.50;99.90
54846;DHT22;53889;50.084;8.646;2022-11-24T10:27:21;13.10;99.90
54846;DHT22;53889;50.084;8.646;2022-11-24T10:29:51;12.60;99.90
54846;DHT22;53889;50.084;8.646;2022-11-24T10:32:22;12.10;99.90
54846;DHT22;53889;50.084;8.646;2022-11-24T10:34:49;11.90;99.90
54846;DHT22;53889;50.084;8.646;2022-11-24T10:37:20;11.70;99.90
54846;DHT22;53889;50.084;8.646;2022-11-24T10:39:55;11.80;99.90
54846;DHT22;53889;50.084;8.646;2022-11-24T10:42:27;11.70;99.90
54846;DHT22;53889;50.084;8.646;2022-11-24T10:44:58;11.80;99.90
54846;DHT22;53889;50.084;8.646;2022-11-24T10:47:26;11.80;99.90
54846;DHT22;53889;50.084;8.646;2022-11-24T10:49:57;11.70;99.90
54846;DHT22;53889;50.084;8.646;2022-11-24T10:52:26;11.70;99.90
54846;DHT22;53889;50.084;8.646;2022-11-24T10:54:56;11.50;99.90
54846;DHT22;53889;50.084;8.646;2022-11-24T10:57:29;11.70;99.90
54846;DHT22;53889;50.084;8.646;2022-11-24T10:59:56;11.80;99.90
54846;DHT22;53889;50.084;8.646;2022-11-24T11:02:35;12.00;99.90
54846;DHT22;53889;50.084;8.646;2022-11-24T11:05:23;11.90;99.90
54846;DHT22;53889;50.084;8.646;2022-11-24T11:10:36;11.70;99.90
54846;DHT22;53889;50.084;8.646;2022-11-24T11:13:25;11.70;99.90
54846;DHT22;53889;50.084;8.646;2022-11-24T11:15:53;11.60;99.90
54846;DHT22;53889;50.084;8.646;2022-11-24T11:18:20;11.50;99.90
54846;DHT22;53889;50.084;8.646;2022-11-24T11:20:52;11.60;99.90
54846;DHT22;53889;50.084;8.646;2022-11-24T11:23:22;11.60;99.90
54846;DHT22;53889;50.084;8.646;2022-11-24T11:26:19;11.70;99.90
54846;DHT22;53889;50.084;8.646;2022-11-24T11:29:01;11.70;99.90
54846;DHT22;53889;50.084;8.646;2022-11-24T11:31:30;11.50;99.90
54846;DHT22;53889;50.084;8.646;2022-11-24T11:33:59;11.50;99.90
54846;DHT22;53889;50.084;8.646;2022-11-24T11:36:27;11.40;99.90
54846;DHT22;53889;50.084;8.646;2022-11-24T11:38:55;11.30;99.90
54846;DHT22;53889;50.084;8.646;2022-11-24T11:41:29;11.20;99.90
54846;DHT22;53889;50.084;8.646;2022-11-24T11:44:05;12.50;99.90
54846;DHT22;53889;50.084;8.646;2022-11-24T11:46:32;11.60;99.90
54846;DHT22;53889;50.084;8.646;2022-11-24T11:48:59;12.00;99.90
54846;DHT22;53889;50.084;8.646;2022-11-24T11:51:37;12.20;99.90
54846;DHT22;53889;50.084;8.646;2022-11-24T11:54:12;12.20;99.90
54846;DHT22;53889;50.084;8.646;2022-11-24T11:56:43;12.50;99.90
54846;DHT22;53889;50.084;8.646;2022-11-24T11:59:22;12.60;99.90
54846;DHT22;53889;50.084;8.646;2022-11-24T12:02:23;12.50;99.90
54846;DHT22;53889;50.084;8.646;2022-11-24T12:04:56;12.40;99.90
54846;DHT22;53889;50.084;8.646;2022-11-24T12:07:52;12.20;99.90
54846;DHT22;53889;50.084;8.646;2022-11-24T12:10:30;12.00;99.90
54846;DHT22;53889;50.084;8.646;2022-11-24T12:13:12;12.00;99.90
54846;DHT22;53889;50.084;8.646;2022-11-24T12:15:46;11.90;99.90
54846;DHT22;53889;50.084;8.646;2022-11-24T12:18:24;11.80;99.90
54846;DHT22;53889;50.084;8.646;2022-11-24T12:20:59;11.70;99.90
54846;DHT22;53889;50.084;8.646;2022-11-24T12:23:33;11.70;99.90
54846;DHT22;53889;50.084;8.646;2022-11-24T12:26:12;11.80;99.90
54846;DHT22;53889;50.084;8.646;2022-11-24T12:28:50;12.10;99.90
54846;DHT22;53889;50.084;8.646;2022-11-24T12:31:22;12.20;99.90
54846;DHT22;53889;50.084;8.646;2022-11-24T12:36:59;12.10;99.90
54846;DHT22;53889;50.084;8.646;2022-11-24T12:39:33;12.00;99.90
54846;DHT22;53889;50.084;8.646;2022-11-24T12:42:07;12.00;99.90
54846;DHT22;53889;50.084;8.646;2022-11-24T12:44:49;12.00;99.90
54846;DHT22;53889;50.084;8.646;2022-11-24T12:47:26;11.90;99.90
54846;DHT22;53889;50.084;8.646;2022-11-24T12:50:02;11.90;99.90
54846;DHT22;53889;50.084;8.646;2022-11-24T12:52:36;12.10;99.90
54846;DHT22;53889;50.084;8.646;2022-11-24T12:55:12;12.10;99.90
54846;DHT22;53889;50.084;8.646;2022-11-24T12:57:45;12.20;99.90
54846;DHT22;53889;50.084;8.646;2022-11-24T13:00:19;12.20;99.90
54846;DHT22;53889;50.084;8.646;2022-11-24T13:03:03;12.10;99.90
54846;DHT22;53889;50.084;8.646;2022-11-24T13:05:37;12.10;99.90
54846;DHT22;53889;50.084;8.646;2022-11-24T13:08:06;12.10;99.90
54846;DHT22;53889;50.084;8.646;2022-11-24T13:10:34;12.10;99.90
54846;DHT22;53889;50.084;8.646;2022-11-24T13:13:03;12.10;99.90
54846;DHT22;53889;50.084;8.646;2022-11-24T13:15:32;12.00;99.90
54846;DHT22;53889;50.084;8.646;2022-11-24T13:18:43;11.90;99.90
54846;DHT22;53889;50.084;8.646;2022-11-24T13:21:47;12.00;99.90
54846;DHT22;53889;50.084;8.646;2022-11-24T13:24:24;12.00;99.90
54846;DHT22;53889;50.084;8.646;2022-11-24T13:26:53;11.90;99.90
54846;DHT22;53889;50.084;8.646;2022-11-24T13:29:32;11.90;99.90
54846;DHT22;53889;50.084;8.646;2022-11-24T13:35:17;11.90;99.90
54846;DHT22;53889;50.084;8.646;2022-11-24T13:37:45;11.90;99.90
54846;DHT22;53889;50.084;8.646;2022-11-24T13:40:39;11.80;99.90
54846;DHT22;53889;50.084;8.646;2022-11-24T13:43:22;11.80;99.90
54846;DHT22;53889;50.084;8.646;2022-11-24T13:45:50;12.00;99.90
54846;DHT22;53889;50.084;8.646;2022-11-24T13:48:57;12.10;99.90
54846;DHT22;53889;50.084;8.646;2022-11-24T13:51:26;12.30;99.90
54846;DHT22;53889;50.084;8.646;2022-11-24T13:53:54;12.20;99.90
54846;DHT22;53889;50.084;8.646;2022-11-24T13:56:24;12.20;99.90
54846;DHT22;53889;50.084;8.646;2022-11-24T13:58:54;12.20;99.90
54846;DHT22;53889;50.084;8.646;2022-11-24T14:01:23;11.90;99.90
54846;DHT22;53889;50.084;8.646;2022-11-24T14:03:57;11.80;99.90
54846;DHT22;53889;50.084;8.646;2022-11-24T14:06:29;11.60;99.90
54846;DHT22;53889;50.084;8.646;2022-11-24T14:08:57;11.50;99.90
54846;DHT22;53889;50.084;8.646;2022-11-24T14:11:24;11.50;99.90
54846;DHT22;53889;50.084;8.646;2022-11-24T14:13:52;11.50;99.90
54846;DHT22;53889;50.084;8.646;2022-11-24T14:16:20;11.50;99.90
54846;DHT22;53889;50.084;8.646;2022-11-24T14:18:48;11.50;99.90
54846;DHT22;53889;50.084;8.646;2022-11-24T14:21:23;11.50;99.90
54846;DHT22;53889;50.084;8.646;2022-11-24T14:23:54;11.70;99.90
54846;DHT22;53889;50.084;8.646;2022-11-24T14:26:30;11.50;99.90
54846;DHT22;53889;50.084;8.646;2022-11-24T14:29:06;11.50;99.90
54846;DHT22;53889;50.084;8.646;2022-11-24T14:31:33;11.60;99.90
54846;DHT22;53889;50.084;8.646;2022-11-24T14:34:12;11.50;99.90
54846;DHT22;53889;50.084;8.646;2022-11-24T14:36:39;11.50;99.90
54846;DHT22;53889;50.084;8.646;2022-11-24T14:39:12;11.40;99.90
54846;DHT22;53889;50.084;8.646;2022-11-24T14:41:39;11.20;99.90
54846;DHT22;53889;50.084;8.646;2022-11-24T14:44:15;11.30;99.90
54846;DHT22;53889;50.084;8.646;2022-11-24T14:46:43;11.30;99.90
54846;DHT22;53889;50.084;8.646;2022-11-24T14:49:16;11.30;99.90
54846;DHT22;53889;50.084;8.646;2022-11-24T14:51:44;11.30;99.90
54846;DHT22;53889;50.084;8.646;2022-11-24T14:54:16;11.30;99.90
54846;DHT22;53889;50.084;8.646;2022-11-24T14:56:57;11.30;99.90
54846;DHT22;53889;50.084;8.646;2022-11-24T14:59:25;11.20;99.90
54846;DHT22;53889;50.084;8.646;2022-11-24T15:01:52;11.10;99.90
54846;DHT22;53889;50.084;8.646;2022-11-24T15:04:21;11.20;99.90
54846;DHT22;53889;50.084;8.646;2022-11-24T15:07:02;11.20;99.90
54846;DHT22;53889;50.084;8.646;2022-11-24T15:09:34;11.20;99.90
54846;DHT22;53889;50.084;8.646;2022-11-24T15:12:06;11.10;99.90
54846;DHT22;53889;50.084;8.646;2022-11-24T15:14:39;11.10;99.90
54846;DHT22;53889;50.084;8.646;2022-11-24T15:17:15;11.00;99.90
54846;DHT22;53889;50.084;8.646;2022-11-24T15:19:43;10.90;99.90
54846;DHT22;53889;50.084;8.646;2022-11-24T15:22:32;10.80;99.90
54846;DHT22;53889;50.084;8.646;2022-11-24T15:25:01;10.80;99.90
54846;DHT22;53889;50.084;8.646;2022-11-24T15:27:28;10.70;99.90
54846;DHT22;53889;50.084;8.646;2022-11-24T15:29:55;10.70;99.90
54846;DHT22;53889;50.084;8.646;2022-11-24T15:32:22;10.60;99.90
54846;DHT22;53889;50.084;8.646;2022-11-24T15:34:48;10.60;99.90
54846;DHT22;53889;50.084;8.646;2022-11-24T15:37:15;10.50;99.90
54846;DHT22;53889;50.084;8.646;2022-11-24T15:39:42;10.50;99.90
54846;DHT22;53889;50.084;8.646;2022-11-24T15:42:12;10.50;99.90
54846;DHT22;53889;50.084;8.646;2022-11-24T15:44:38;10.40;99.90
54846;DHT22;53889;50.084;8.646;2022-11-24T15:47:05;10.50;99.90
54846;DHT22;53889;50.084;8.646;2022-11-24T15:49:32;10.50;99.90
54846;DHT22;53889;50.084;8.646;2022-11-24T15:51:59;10.40;99.90
54846;DHT22;53889;50.084;8.646;2022-11-24T15:54:25;11.00;99.90
54846;DHT22;53889;50.084;8.646;2022-11-24T15:56:54;10.30;99.90
54846;DHT22;53889;50.084;8.646;2022-11-24T15:59:22;10.30;99.90
54846;DHT22;53889;50.084;8.646;2022-11-24T16:01:49;10.20;99.90
54846;DHT22;53889;50.084;8.646;2022-11-24T16:04:15;10.20;99.90
54846;DHT22;53889;50.084;8.646;2022-11-24T16:06:42;10.10;99.90